Time;durP1;ratioP1;P1;durP2;ratioP2;P2;SDS_P1;SDS_P2;PMS_P1;PMS_P2;Temp;Humidity;BMP_temperature;BMP_pressure;BME280_temperature;BME280_humidity;BME280_pressure;Samples;Min_cycle;Max_cycle;Signal;HPM_P1;HPM_P2
2023/03/08 00:01:13;;;;;;;2.20;1.33;;;;;;;-0.80;100.00;99890.63;5076315;28;20053;-77
2023/03/08 00:03:40;;;;;;;1.73;1.20;;;;;;;-0.86;100.00;99890.44;5015262;28;20037;-78
2023/03/08 00:06:12;;;;;;;1.60;1.50;;;;;;;-0.89;100.00;99890.34;5029342;28;20049;-77
2023/03/08 00:08:39;;;;;;;3.53;1.80;;;;;;;-0.92;100.00;99890.22;5032008;28;20404;-78
2023/03/08 00:11:10;;;;;;;2.60;1.50;;;;;;;-0.95;100.00;99887.53;5035584;28;20056;-78
2023/03/08 00:13:38;;;;;;;4.28;1.80;;;;;;;-0.96;100.00;99892.66;5076399;28;20052;-78
2023/03/08 00:16:09;;;;;;;1.80;1.60;;;;;;;-1.00;100.00;99886.50;5047409;28;20056;-78
2023/03/08 00:18:37;;;;;;;1.98;1.77;;;;;;;-1.01;100.00;99900.25;5029817;28;20041;-79
2023/03/08 00:21:14;;;;;;;2.20;2.00;;;;;;;-1.05;100.00;99893.22;5024933;28;20049;-78
2023/03/08 00:23:42;;;;;;;2.10;1.95;;;;;;;-1.12;100.00;99899.88;5067178;28;20056;-78
2023/03/08 00:26:10;;;;;;;2.88;2.40;;;;;;;-1.17;100.00;99898.84;5063776;28;20053;-78
2023/03/08 00:28:38;;;;;;;2.95;1.75;;;;;;;-1.23;100.00;99898.63;5051005;28;20052;-78
2023/03/08 00:31:11;;;;;;;3.17;2.20;;;;;;;-1.29;100.00;99895.81;5065316;28;20401;-78
2023/03/08 00:33:39;;;;;;;2.70;2.15;;;;;;;-1.31;100.00;99910.41;4995092;28;20056;-78
2023/03/08 00:36:10;;;;;;;5.07;2.03;;;;;;;-1.36;100.00;99894.75;5037901;28;20059;-78
2023/03/08 00:38:38;;;;;;;4.10;1.90;;;;;;;-1.40;100.00;99896.34;5029369;28;20050;-77
2023/03/08 00:41:06;;;;;;;2.85;2.10;;;;;;;-1.40;100.00;99895.44;5046293;28;20049;-77
2023/03/08 00:43:34;;;;;;;2.97;1.40;;;;;;;-1.44;100.00;99896.16;5061989;28;20041;-78
2023/03/08 00:46:04;;;;;;;;;;;;;;;-1.46;100.00;99890.91;5061893;28;20057;-78
2023/03/08 00:48:32;;;;;;;2.72;1.70;;;;;;;-1.47;100.00;99891.75;5048855;28;19928;-78
2023/03/08 00:51:00;;;;;;;4.45;1.98;;;;;;;-1.47;100.00;99893.47;4975317;28;20047;-78
2023/03/08 00:53:27;;;;;;;2.83;1.83;;;;;;;-1.48;100.00;99884.81;5025860;28;20054;-78
2023/03/08 00:55:57;;;;;;;2.67;1.52;;;;;;;-1.48;100.00;99877.06;5027269;28;20064;-78
2023/03/08 00:58:28;;;;;;;2.88;1.85;;;;;;;-1.48;100.00;99887.41;5010571;28;20457;-78
2023/03/08 01:00:56;;;;;;;2.10;2.00;;;;;;;-1.46;100.00;99874.56;4997888;28;20495;-78
2023/03/08 01:03:25;;;;;;;4.13;1.58;;;;;;;-1.47;100.00;99875.38;5026685;28;20045;-78
2023/03/08 01:05:57;;;;;;;1.77;1.67;;;;;;;-1.47;100.00;99877.97;4958583;28;20518;-78
2023/03/08 01:08:25;;;;;;;3.45;1.88;;;;;;;-1.47;100.00;99875.38;5018505;28;20057;-80
2023/03/08 01:10:58;;;;;;;5.03;2.10;;;;;;;-1.47;100.00;99885.72;4996262;28;20120;-79
2023/03/08 01:13:29;;;;;;;2.53;1.67;;;;;;;-1.46;100.00;99887.47;5009706;28;20052;-78
2023/03/08 01:15:57;;;;;;;3.50;1.90;;;;;;;-1.47;100.00;99884.00;5011966;28;20049;-79
2023/03/08 01:18:25;;;;;;;1.95;1.83;;;;;;;-1.48;100.00;99882.25;5009406;28;20058;-79
2023/03/08 01:21:03;;;;;;;4.15;1.80;;;;;;;-1.49;100.00;99885.66;4994104;28;20060;-79
2023/03/08 01:23:31;;;;;;;2.22;1.55;;;;;;;-1.49;100.00;99880.50;5019521;28;20053;-78
2023/03/08 01:26:04;;;;;;;2.35;2.03;;;;;;;-1.47;100.00;99873.69;4994267;28;20507;-79
2023/03/08 01:28:32;;;;;;;3.90;1.98;;;;;;;-1.49;100.00;99877.00;5027771;28;20073;-79
2023/03/08 01:31:09;;;;;;;2.22;1.50;;;;;;;-1.52;100.00;99874.34;4996213;28;20049;-79
2023/03/08 01:33:45;;;;;;;2.83;1.58;;;;;;;-1.55;100.00;99869.03;5011144;28;20048;-79
2023/03/08 01:36:17;;;;;;;6.07;1.73;;;;;;;-1.59;100.00;99858.63;4990440;28;20049;-79
2023/03/08 01:38:45;;;;;;;3.42;1.48;;;;;;;-1.60;100.00;99862.00;5020044;28;20414;-77
2023/03/08 01:41:16;;;;;;;2.30;1.55;;;;;;;-1.61;100.00;99859.38;5025743;28;20053;-77
2023/03/08 01:43:44;;;;;;;3.08;1.90;;;;;;;-1.62;100.00;99858.50;5044642;28;20053;-77
2023/03/08 01:46:42;;;;;;;4.68;1.92;;;;;;;-1.64;100.00;99857.56;5040508;28;20068;-78
2023/03/08 01:49:34;;;;;;;3.88;1.50;;;;;;;-1.64;100.00;99861.88;4999672;28;20055;-77
2023/03/08 01:52:06;;;;;;;4.70;1.73;;;;;;;-1.66;100.00;99863.50;4971399;28;20387;-77
2023/03/08 01:54:34;;;;;;;;;;;;;;;-1.67;100.00;99862.59;5027185;28;20038;-77
2023/03/08 01:57:07;;;;;;;5.72;1.60;;;;;;;-1.68;100.00;99858.28;5007038;28;19921;-80
2023/03/08 01:59:35;;;;;;;3.38;1.65;;;;;;;-1.68;100.00;99857.38;5026731;28;20046;-77
2023/03/08 02:02:03;;;;;;;3.70;2.00;;;;;;;-1.69;100.00;99855.63;4995615;28;20058;-79
2023/03/08 02:04:33;;;;;;;3.28;1.90;;;;;;;-1.69;100.00;99851.34;4994815;28;20082;-77
2023/03/08 02:07:01;;;;;;;2.60;1.70;;;;;;;-1.69;100.00;99861.69;5031151;28;20049;-80
2023/03/08 02:09:30;;;;;;;4.03;2.30;;;;;;;-1.69;100.00;99855.63;4989955;28;20042;-78
2023/03/08 02:12:02;;;;;;;7.55;1.75;;;;;;;-1.70;100.00;99849.59;4998894;28;20069;-78
2023/03/08 02:14:31;;;;;;;2.08;1.67;;;;;;;-1.70;100.00;99843.53;5017633;28;20053;-80
2023/03/08 02:17:00;;;;;;;1.85;1.67;;;;;;;-1.72;100.00;99848.66;4999542;28;20061;-80
2023/03/08 02:20:20;;;;;;;1.92;1.77;;;;;;;-1.75;100.00;99840.78;4995490;28;20057;-79
2023/03/08 02:22:52;;;;;;;2.88;1.95;;;;;;;-1.78;100.00;99848.41;4951386;28;20058;-80
2023/03/08 02:25:25;;;;;;;3.35;1.63;;;;;;;-1.81;100.00;99840.59;5030418;28;20045;-79
2023/03/08 02:27:54;;;;;;;4.90;1.85;;;;;;;-1.83;100.00;99850.84;4997545;28;20061;-80
2023/03/08 02:30:31;;;;;;;4.70;2.20;;;;;;;-1.83;100.00;99849.97;5003925;28;20049;-79
2023/03/08 02:32:58;;;;;;;4.43;1.67;;;;;;;-1.85;100.00;99854.19;5014095;28;20061;-80
2023/03/08 02:35:29;;;;;;;4.35;1.58;;;;;;;-1.87;100.00;99848.97;5033789;28;20206;-79
2023/03/08 02:37:56;;;;;;;6.68;1.75;;;;;;;-1.89;100.00;99852.31;4990820;28;20045;-79
2023/03/08 02:40:24;;;;;;;4.78;2.08;;;;;;;-1.93;100.00;99856.47;5033986;28;20469;-79
2023/03/08 02:42:54;;;;;;;5.15;2.72;;;;;;;-1.97;100.00;99858.09;5021636;28;20038;-80
2023/03/08 02:45:22;;;;;;;3.58;1.63;;;;;;;-1.99;100.00;99853.69;5011266;28;20045;-79
2023/03/08 02:47:50;;;;;;;3.03;1.60;;;;;;;-2.00;100.00;99851.94;4975242;28;20046;-79
2023/03/08 02:50:18;;;;;;;3.35;1.63;;;;;;;-2.03;100.00;99852.69;5003872;28;20115;-79
2023/03/08 02:52:45;;;;;;;3.58;1.55;;;;;;;-2.04;100.00;99850.03;4982917;28;20057;-79
2023/03/08 02:55:12;;;;;;;2.20;1.98;;;;;;;-2.04;100.00;99845.78;5024337;28;20056;-78
2023/03/08 02:57:40;;;;;;;2.60;1.65;;;;;;;-2.05;100.00;99846.56;5009593;28;20057;-79
2023/03/08 03:00:09;;;;;;;2.78;1.77;;;;;;;-2.05;100.00;99858.63;4983272;28;20041;-79
2023/03/08 03:02:36;;;;;;;2.95;2.67;;;;;;;-2.05;100.00;99846.56;5003175;28;20706;-79
2023/03/08 03:05:09;;;;;;;2.75;1.48;;;;;;;-2.07;100.00;99842.19;5033015;28;20045;-79
2023/03/08 03:07:41;;;;;;;2.80;1.85;;;;;;;-2.10;100.00;99837.78;5024893;28;20656;-79
2023/03/08 03:10:14;;;;;;;2.45;1.98;;;;;;;-2.10;100.00;99837.78;4973451;28;20056;-79
2023/03/08 03:12:43;;;;;;;3.13;1.77;;;;;;;-2.10;100.00;99842.06;4999931;28;20053;-79
2023/03/08 03:15:16;;;;;;;4.35;1.90;;;;;;;-2.10;100.00;99842.94;5023681;28;20060;-79
2023/03/08 03:17:46;;;;;;;6.18;1.98;;;;;;;-2.11;100.00;99836.03;4983379;28;20057;-78
2023/03/08 03:20:14;;;;;;;4.80;1.80;;;;;;;-2.10;100.00;99836.91;4987759;28;20061;-78
2023/03/08 03:22:43;;;;;;;4.63;1.83;;;;;;;-2.10;100.00;99842.94;4986782;28;20050;-78
2023/03/08 03:25:11;;;;;;;2.90;1.70;;;;;;;-2.10;100.00;99835.19;4977468;28;20045;-79
2023/03/08 03:27:39;;;;;;;1.67;1.50;;;;;;;-2.09;100.00;99839.53;4990520;28;20060;-78
2023/03/08 03:30:08;;;;;;;1.77;1.60;;;;;;;-2.08;100.00;99830.09;5014874;28;20057;-78
2023/03/08 03:32:36;;;;;;;3.03;2.30;;;;;;;-2.06;100.00;99833.59;5013947;28;20075;-77
2023/03/08 03:35:07;;;;;;;1.50;1.40;;;;;;;-2.06;100.00;99831.03;5014767;28;20049;-77
2023/03/08 03:37:35;;;;;;;5.05;1.60;;;;;;;-2.06;100.00;99839.66;4997071;28;20510;-79
2023/03/08 03:40:04;;;;;;;2.60;1.60;;;;;;;-2.06;100.00;99834.50;4975545;28;20052;-79
2023/03/08 03:42:38;;;;;;;2.97;1.60;;;;;;;-2.07;100.00;99848.22;5023884;28;20069;-79
2023/03/08 03:45:10;;;;;;;1.60;1.50;;;;;;;-2.09;100.00;99844.72;5014780;28;20053;-79
2023/03/08 03:47:38;;;;;;;3.63;1.75;;;;;;;-2.08;100.00;99838.75;4995198;28;20053;-78
2023/03/08 03:50:09;;;;;;;3.47;1.50;;;;;;;-2.07;100.00;99843.06;5005566;28;20056;-78
2023/03/08 03:52:50;;;;;;;1.50;1.40;;;;;;;-2.07;100.00;99832.72;4999947;28;20056;-79
2023/03/08 03:55:17;;;;;;;3.75;1.70;;;;;;;-2.06;100.00;99838.78;5000255;28;20059;-78
2023/03/08 03:57:45;;;;;;;3.00;1.60;;;;;;;-2.08;100.00;99830.09;5043803;28;20050;-79
2023/03/08 04:00:16;;;;;;;;;;;;;;;-2.09;100.00;99846.41;5045556;28;20049;-78
2023/03/08 04:02:50;;;;;;;3.70;1.30;;;;;;;-2.09;100.00;99857.63;5036605;28;19924;-77
2023/03/08 04:05:20;;;;;;;1.92;1.45;;;;;;;-2.05;100.00;99854.31;5020645;28;20409;-79
2023/03/08 04:07:51;;;;;;;3.13;1.90;;;;;;;-2.01;100.00;99865.66;5037396;28;20049;-79
2023/03/08 04:10:21;;;;;;;5.22;1.55;;;;;;;-1.99;100.00;99862.28;5016429;28;20052;-78
2023/03/08 04:12:51;;;;;;;2.10;1.35;;;;;;;-1.97;100.00;99860.69;5026096;28;20055;-79
2023/03/08 04:15:20;;;;;;;6.22;2.03;;;;;;;-1.92;100.00;99872.88;5016118;28;20512;-79
2023/03/08 04:17:50;;;;;;;3.83;1.80;;;;;;;-1.89;100.00;99867.81;5045647;28;20052;-79
2023/03/08 04:20:20;;;;;;;3.83;1.90;;;;;;;-1.86;100.00;99858.47;5030805;28;20052;-78
2023/03/08 04:22:56;;;;;;;1.95;1.50;;;;;;;-1.81;100.00;99856.06;5015508;28;20048;-78
2023/03/08 04:25:30;;;;;;;2.28;1.80;;;;;;;-1.80;100.00;99852.66;5016980;28;20057;-78
2023/03/08 04:28:00;;;;;;;3.63;2.05;;;;;;;-1.77;100.00;99845.03;5049422;28;20052;-79
2023/03/08 04:30:29;;;;;;;3.72;1.92;;;;;;;-1.75;100.00;99842.50;5015787;28;20056;-78
2023/03/08 04:32:58;;;;;;;2.65;1.77;;;;;;;-1.77;100.00;99847.63;5034001;28;20049;-78
2023/03/08 04:35:33;;;;;;;2.40;1.70;;;;;;;-1.79;100.00;99834.63;5022440;28;20056;-78
2023/03/08 04:38:02;;;;;;;3.63;2.50;;;;;;;-1.79;100.00;99841.50;5024457;28;20051;-78
2023/03/08 04:40:29;;;;;;;7.70;2.00;;;;;;;-1.81;100.00;99844.03;5031110;28;20064;-78
2023/03/08 04:43:01;;;;;;;5.32;2.45;;;;;;;-1.83;100.00;99839.66;4975310;28;20049;-78
2023/03/08 04:45:34;;;;;;;5.38;1.50;;;;;;;-1.85;100.00;99830.94;5032728;28;20042;-79
2023/03/08 04:48:07;;;;;;;1.70;1.60;;;;;;;-1.86;100.00;99832.66;5046933;28;20148;-78
2023/03/08 04:50:34;;;;;;;3.40;1.75;;;;;;;-1.88;100.00;99825.69;5029303;28;20071;-78
2023/03/08 04:53:02;;;;;;;2.78;1.67;;;;;;;-1.90;100.00;99820.44;5054879;28;20049;-78
2023/03/08 04:55:30;;;;;;;1.95;1.73;;;;;;;-1.91;100.00;99823.88;5028935;28;20064;-78
2023/03/08 04:57:58;;;;;;;2.10;2.00;;;;;;;-1.90;100.00;99822.16;4970576;28;20054;-79
2023/03/08 05:00:29;;;;;;;2.83;1.70;;;;;;;-1.96;100.00;99815.94;5011155;28;20052;-79
2023/03/08 05:02:56;;;;;;;2.30;1.65;;;;;;;-1.99;100.00;99820.13;4975111;28;20056;-79
2023/03/08 05:05:25;;;;;;;1.73;1.48;;;;;;;-2.01;100.00;99812.31;5007823;28;20530;-79
2023/03/08 05:07:55;;;;;;;3.65;1.58;;;;;;;-2.01;100.00;99806.25;4965574;28;20053;-79
2023/03/08 05:10:22;;;;;;;4.93;1.75;;;;;;;-2.02;100.00;99801.94;4998327;28;20060;-78
2023/03/08 05:12:50;;;;;;;4.05;1.70;;;;;;;-2.03;100.00;99811.38;4970014;28;20052;-79
2023/03/08 05:15:18;;;;;;;2.75;1.70;;;;;;;-2.02;100.00;99805.41;5008059;28;20060;-79
2023/03/08 05:17:46;;;;;;;6.68;1.90;;;;;;;-2.01;100.00;99814.00;5026437;28;20050;-78
2023/03/08 05:20:16;;;;;;;3.30;2.00;;;;;;;-2.00;100.00;99808.03;4967772;28;20060;-78
2023/03/08 05:22:44;;;;;;;6.35;2.30;;;;;;;-2.01;100.00;99807.13;5010800;28;20080;-78
2023/03/08 05:25:32;;;;;;;6.90;2.00;;;;;;;-2.02;100.00;99800.22;5001934;28;20426;-78
2023/03/08 05:28:01;;;;;;;3.05;1.70;;;;;;;-2.02;100.00;99800.22;4973314;28;20621;-79
2023/03/08 05:30:29;;;;;;;2.88;1.77;;;;;;;-2.02;100.00;99800.22;5027287;28;20387;-79
2023/03/08 05:32:57;;;;;;;3.72;2.00;;;;;;;-2.01;100.00;99799.41;5008955;28;20052;-79
2023/03/08 05:35:24;;;;;;;6.13;1.77;;;;;;;-2.00;100.00;99798.59;4978757;28;20061;-79
2023/03/08 05:37:52;;;;;;;1.67;1.50;;;;;;;-2.00;100.00;99793.41;5027013;28;20045;-79
2023/03/08 05:40:22;;;;;;;4.45;1.65;;;;;;;-1.99;100.00;99794.28;5003668;28;20064;-80
2023/03/08 05:42:50;;;;;;;6.80;1.60;;;;;;;-1.99;100.00;99787.41;4981451;28;20050;-80
2023/03/08 05:45:18;;;;;;;2.47;1.50;;;;;;;-1.98;100.00;99784.03;4972227;28;20049;-80
2023/03/08 05:47:46;;;;;;;5.05;2.85;;;;;;;-1.99;100.00;99794.28;5010998;28;20055;-79
2023/03/08 05:50:14;;;;;;;4.72;1.83;;;;;;;-2.01;100.00;99789.06;5013534;28;20045;-80
2023/03/08 05:52:45;;;;;;;4.93;1.92;;;;;;;-1.99;100.00;99797.75;4998725;28;20491;-78
2023/03/08 05:55:17;;;;;;;2.90;1.90;;;;;;;-1.96;100.00;99784.09;4996131;28;20062;-79
2023/03/08 05:57:47;;;;;;;4.70;2.28;;;;;;;-1.94;100.00;99777.28;5040864;28;20053;-79
2023/03/08 06:00:16;;;;;;;2.65;1.85;;;;;;;-1.94;100.00;99779.84;4989438;28;20044;-80
2023/03/08 06:02:46;;;;;;;3.13;2.67;;;;;;;-1.94;100.00;99774.69;5011810;28;20068;-79
2023/03/08 06:05:14;;;;;;;1.80;1.70;;;;;;;-1.94;100.00;99772.09;5010236;28;20041;-79
2023/03/08 06:07:43;;;;;;;2.03;1.73;;;;;;;-1.92;100.00;99764.41;5024061;28;20516;-79
2023/03/08 06:10:13;;;;;;;2.22;1.40;;;;;;;-1.92;100.00;99769.59;4983055;28;24051;-78
2023/03/08 06:12:40;;;;;;;3.38;2.22;;;;;;;-1.92;100.00;99767.00;5026712;28;20037;-78
2023/03/08 06:15:12;;;;;;;;;;;;;;;-1.91;100.00;99771.31;4977092;28;20062;-77
2023/03/08 06:17:40;;;;;;;1.77;1.60;;;;;;;-1.91;100.00;99766.16;5020824;28;19921;-78
2023/03/08 06:20:10;;;;;;;4.75;2.42;;;;;;;-1.92;100.00;99767.00;5029072;28;20060;-79
2023/03/08 06:22:41;;;;;;;4.47;1.90;;;;;;;-1.90;100.00;99773.09;5027315;28;20050;-79
2023/03/08 06:25:10;;;;;;;9.63;4.03;;;;;;;-1.90;100.00;99766.22;5034227;28;20052;-79
2023/03/08 06:27:38;;;;;;;2.85;2.05;;;;;;;-1.88;100.00;99774.91;5022285;28;20045;-78
2023/03/08 06:30:14;;;;;;;3.53;1.40;;;;;;;-1.87;100.00;99773.19;5031593;28;20056;-78
2023/03/08 06:32:42;;;;;;;4.10;1.83;;;;;;;-1.86;100.00;99764.63;4975363;28;20060;-78
2023/03/08 06:35:10;;;;;;;2.58;1.58;;;;;;;-1.85;100.00;99766.38;5028994;28;20387;-79
2023/03/08 06:37:44;;;;;;;8.85;3.17;;;;;;;-1.84;100.00;99757.81;5012507;28;20045;-80
2023/03/08 06:40:12;;;;;;;5.03;1.92;;;;;;;-1.83;100.00;99744.97;5019003;28;20048;-80
2023/03/08 06:42:41;;;;;;;3.55;2.20;;;;;;;-1.80;100.00;99739.00;5005427;28;20053;-79
2023/03/08 06:45:12;;;;;;;4.45;2.17;;;;;;;-1.77;100.00;99739.13;5017529;28;20083;-80
2023/03/08 06:47:39;;;;;;;6.55;1.85;;;;;;;-1.74;100.00;99734.06;4989782;28;20041;-80
2023/03/08 06:50:09;;;;;;;4.57;1.88;;;;;;;-1.69;100.00;99737.69;5014448;28;20048;-79
2023/03/08 06:52:38;;;;;;;5.20;1.88;;;;;;;-1.64;100.00;99746.47;5048778;28;20052;-79
2023/03/08 06:55:08;;;;;;;2.88;1.70;;;;;;;-1.61;100.00;99741.44;5043701;28;20065;-79
2023/03/08 06:57:35;;;;;;;4.45;2.20;;;;;;;-1.57;100.00;99738.13;5012373;28;20052;-79
2023/03/08 07:00:03;;;;;;;3.80;2.08;;;;;;;-1.52;100.00;99729.66;5045951;28;20048;-78
2023/03/08 07:02:30;;;;;;;2.40;2.00;;;;;;;-1.47;100.00;99731.56;4990961;28;20525;-78
2023/03/08 07:04:58;;;;;;;3.08;2.88;;;;;;;-1.41;100.00;99729.16;5040529;28;20055;-78
2023/03/08 07:07:25;;;;;;;2.47;1.90;;;;;;;-1.34;100.00;99725.09;5013742;28;20052;-78
2023/03/08 07:09:53;;;;;;;1.98;1.77;;;;;;;-1.31;100.00;99727.75;5049087;28;20049;-78
2023/03/08 07:12:21;;;;;;;7.25;2.33;;;;;;;-1.27;100.00;99727.03;5004496;28;20060;-78
2023/03/08 07:14:51;;;;;;;5.18;2.45;;;;;;;-1.22;100.00;99735.81;5027065;28;20051;-78
2023/03/08 07:17:19;;;;;;;7.93;2.72;;;;;;;-1.18;100.00;99736.81;5012818;28;20080;-79
2023/03/08 07:19:47;;;;;;;2.67;2.47;;;;;;;-1.13;100.00;99739.56;4999608;28;20858;-78
2023/03/08 07:22:15;;;;;;;4.63;2.72;;;;;;;-1.08;100.00;99737.97;5013841;28;20491;-79
2023/03/08 07:24:45;;;;;;;6.43;2.67;;;;;;;-1.02;100.00;99740.75;5019678;28;20063;-78
2023/03/08 07:27:15;;;;;;;2.90;2.63;;;;;;;-0.94;100.00;99741.00;5028310;28;20041;-78
2023/03/08 07:29:43;;;;;;;4.60;2.95;;;;;;;-0.87;100.00;99737.75;5022630;28;20056;-78
2023/03/08 07:32:10;;;;;;;4.07;2.60;;;;;;;-0.81;100.00;99735.41;5045983;28;20049;-80
2023/03/08 07:34:39;;;;;;;3.58;2.28;;;;;;;-0.75;100.00;99739.88;5004096;28;20037;-79
2023/03/08 07:37:25;;;;;;;8.25;3.47;;;;;;;-0.70;100.00;99739.19;5027033;28;20049;-81
2023/03/08 07:39:52;;;;;;;3.25;2.65;;;;;;;-0.63;100.00;99740.25;5029380;28;20037;-77
2023/03/08 07:42:19;;;;;;;3.70;3.13;;;;;;;-0.57;100.00;99736.97;5033589;28;20052;-81
2023/03/08 07:44:53;;;;;;;4.93;2.80;;;;;;;-0.52;100.00;99731.09;5001601;28;20437;-78
2023/03/08 07:47:20;;;;;;;7.65;3.45;;;;;;;-0.46;100.00;99732.97;5035492;28;20087;-79
2023/03/08 07:49:48;;;;;;;3.72;2.90;;;;;;;-0.41;100.00;99737.47;5038309;28;20052;-80
2023/03/08 07:52:15;;;;;;;4.38;3.95;;;;;;;-0.35;100.00;99739.34;4997373;28;20048;-79
2023/03/08 07:54:43;;;;;;;7.18;4.30;;;;;;;-0.28;100.00;99730.06;5029175;28;20525;-80
2023/03/08 07:57:14;;;;;;;6.63;4.05;;;;;;;-0.21;100.00;99743.22;5028422;28;20044;-80
2023/03/08 07:59:41;;;;;;;6.43;4.60;;;;;;;-0.12;100.00;99745.19;4992521;28;20060;-80
2023/03/08 08:02:12;;;;;;;6.90;4.90;;;;;;;-0.07;100.00;99737.56;5012881;28;20048;-79
2023/03/08 08:04:39;;;;;;;7.30;5.05;;;;;;;-0.03;100.00;99742.88;5030935;28;20048;-79
2023/03/08 08:07:12;;;;;;;6.95;5.18;;;;;;;-0.02;100.00;99739.44;4987899;28;20428;-79
2023/03/08 08:09:40;;;;;;;5.60;5.10;;;;;;;-0.01;100.00;99736.00;5029751;28;20049;-79
2023/03/08 08:12:08;;;;;;;6.03;5.38;;;;;;;-0.02;100.00;99743.72;5045353;28;20049;-79
2023/03/08 08:14:36;;;;;;;7.18;5.55;;;;;;;-0.01;100.00;99742.91;5002199;28;20118;-79
2023/03/08 08:17:04;;;;;;;6.43;4.68;;;;;;;0.01;100.00;99743.84;4985774;28;20060;-80
2023/03/08 08:19:34;;;;;;;7.30;5.20;;;;;;;0.04;100.00;99751.69;5001093;28;20053;-74
2023/03/08 08:22:02;;;;;;;7.65;5.18;;;;;;;0.06;100.00;99749.13;4959417;28;20041;-79
2023/03/08 08:24:31;;;;;;;6.07;5.13;;;;;;;0.09;100.00;99741.44;5024780;28;20052;-80
2023/03/08 08:26:58;;;;;;;10.63;5.78;;;;;;;0.13;100.00;99738.09;5044697;28;20041;-79
2023/03/08 08:29:26;;;;;;;7.35;4.95;;;;;;;0.18;100.00;99732.22;4981215;28;20059;-79
2023/03/08 08:31:55;;;;;;;7.20;5.32;;;;;;;0.24;100.00;99731.50;5016304;28;20044;-79
2023/03/08 08:34:23;;;;;;;9.20;5.28;;;;;;;0.33;100.00;99736.94;5008457;28;20650;-79
2023/03/08 08:36:50;;;;;;;6.18;5.45;;;;;;;0.37;100.00;99735.31;4983204;28;20056;-79
2023/03/08 08:39:18;;;;;;;7.88;5.00;;;;;;;0.41;100.00;99739.72;5027464;28;20049;-79
2023/03/08 08:41:48;;;;;;;6.05;5.10;;;;;;;0.48;100.00;99740.78;5027976;28;20434;-80
2023/03/08 08:44:15;;;;;;;7.63;5.38;;;;;;;0.54;100.00;99728.81;5021143;28;20057;-79
2023/03/08 08:46:42;;;;;;;7.93;4.88;;;;;;;0.65;100.00;99738.63;5019913;28;20056;-80
2023/03/08 08:49:11;;;;;;;7.00;4.50;;;;;;;0.72;100.00;99735.34;5027598;28;20061;-80
2023/03/08 08:51:38;;;;;;;5.63;4.80;;;;;;;0.80;100.00;99732.94;5029839;28;20414;-80
2023/03/08 08:54:07;;;;;;;11.10;5.00;;;;;;;0.86;100.00;99733.09;4986516;28;20049;-80
2023/03/08 08:56:41;;;;;;;4.82;4.40;;;;;;;0.92;100.00;99728.03;5015347;28;20060;-79
2023/03/08 08:59:11;;;;;;;7.93;4.82;;;;;;;0.95;100.00;99726.41;5043295;28;21166;-79
2023/03/08 09:01:42;;;;;;;6.25;4.55;;;;;;;0.98;100.00;99733.34;5002279;28;20548;-79
2023/03/08 09:04:12;;;;;;;5.57;5.07;;;;;;;1.07;100.00;99727.53;5032742;28;20052;-79
2023/03/08 09:06:40;;;;;;;5.65;4.68;;;;;;;1.17;100.00;99725.19;5029523;28;20052;-79
2023/03/08 09:09:07;;;;;;;6.85;4.90;;;;;;;1.29;100.00;99723.72;4969143;28;20060;-80
2023/03/08 09:11:35;;;;;;;8.50;5.03;;;;;;;1.38;100.00;99720.44;5010058;28;20057;-80
2023/03/08 09:14:18;;;;;;;5.10;4.70;;;;;;;1.48;100.00;99717.22;5018853;28;20057;-80
2023/03/08 09:16:45;;;;;;;4.55;4.05;;;;;;;1.56;100.00;99721.69;5026614;28;20037;-80
2023/03/08 09:19:13;;;;;;;7.95;4.55;;;;;;;1.61;100.00;99711.44;5005752;28;20055;-80
2023/03/08 09:21:40;;;;;;;6.43;4.47;;;;;;;1.66;100.00;99704.59;5028538;28;20053;-79
2023/03/08 09:24:10;;;;;;;4.10;3.80;;;;;;;1.73;100.00;99705.59;4960905;28;20053;-79
2023/03/08 09:26:38;;;;;;;8.13;3.90;;;;;;;1.74;100.00;99691.78;5027723;28;20056;-79
2023/03/08 09:29:06;;;;;;;5.22;3.50;;;;;;;1.77;100.00;99689.22;5009506;28;20300;-79
2023/03/08 09:31:36;;;;;;;4.30;3.90;;;;;;;1.81;100.00;99693.63;4999353;28;20060;-79
2023/03/08 09:34:07;;;;;;;5.43;4.13;;;;;;;1.85;100.00;99685.09;5018666;28;20053;-79
2023/03/08 09:36:38;;;;;;;6.85;3.58;;;;;;;1.91;100.00;99682.59;5024871;28;20048;-79
2023/03/08 09:39:08;;;;;;;7.85;3.33;;;;;;;1.99;100.00;99687.06;4989265;28;20041;-78
2023/03/08 09:41:54;;;;;;;4.40;3.45;;;;;;;2.07;100.00;99682.91;5028860;28;20052;-79
2023/03/08 09:44:50;;;;;;;6.60;3.70;;;;;;;2.12;100.00;99684.72;5010231;28;20051;-79
2023/03/08 09:47:40;;;;;;;6.25;3.88;;;;;;;2.18;100.00;99688.31;5052572;28;20524;-79
2023/03/08 09:50:10;;;;;;;3.55;3.25;;;;;;;2.24;100.00;99693.59;5031500;28;20060;-78
2023/03/08 09:52:47;;;;;;;4.07;3.47;;;;;;;2.29;100.00;99682.44;5042088;28;20485;-79
2023/03/08 09:55:26;;;;;;;5.50;3.88;;;;;;;2.36;100.00;99678.22;4997888;28;20501;-78
2023/03/08 09:57:56;;;;;;;5.30;4.72;;;;;;;2.42;100.00;99677.44;5045450;28;20049;-79
2023/03/08 10:00:34;;;;;;;5.38;4.88;;;;;;;2.48;100.00;99668.03;5020837;28;20536;-79
2023/03/08 10:03:19;;;;;;;9.25;4.40;;;;;;;2.56;100.00;99672.50;5028085;28;20506;-79
2023/03/08 10:06:19;;;;;;;7.97;4.63;;;;;;;2.61;100.00;99671.72;5023958;28;20064;-80
2023/03/08 10:09:14;;;;;;;4.63;4.07;;;;;;;2.69;100.00;99671.84;5004480;28;20045;-78
2023/03/08 10:11:53;;;;;;;8.20;4.53;;;;;;;2.69;100.00;99672.72;5027682;28;20794;-79
2023/03/08 10:14:36;;;;;;;7.35;4.10;;;;;;;2.71;100.00;99671.00;5042826;28;20052;-79
2023/03/08 10:17:11;;;;;;;5.15;4.53;;;;;;;2.75;100.00;99674.53;5045608;28;20052;-78
2023/03/08 10:19:45;;;;;;;4.35;2.88;;;;;;;2.76;100.00;99665.91;5013058;28;20067;-80
2023/03/08 10:22:22;;;;;;;5.65;3.55;;;;;;;2.77;100.00;99665.03;5025376;28;20067;-79
2023/03/08 10:25:30;;;;;;;5.97;2.85;;;;;;;2.84;100.00;99660.81;5047019;28;20052;-79
2023/03/08 10:28:02;;;;;;;4.50;3.33;;;;;;;2.89;100.00;99666.94;4986301;28;20042;-78
2023/03/08 10:30:36;;;;;;;8.43;3.55;;;;;;;2.95;100.00;99659.25;5038100;28;20064;-78
2023/03/08 10:33:09;;;;;;;3.65;3.33;;;;;;;3.02;100.00;99660.19;5028642;28;20052;-78
2023/03/08 10:36:01;;;;;;;5.13;3.63;;;;;;;3.06;100.00;99660.28;5007891;28;20049;-78
2023/03/08 10:38:31;;;;;;;7.70;4.15;;;;;;;3.12;100.00;99660.34;5044351;28;20378;-78
2023/03/08 10:41:01;;;;;;;4.38;3.20;;;;;;;3.21;100.00;99651.78;4992502;28;20418;-79
2023/03/08 10:43:35;;;;;;;4.22;3.38;;;;;;;3.32;100.00;99649.34;5042903;28;20060;-79
2023/03/08 10:46:09;;;;;;;4.95;3.33;;;;;;;3.38;100.00;99643.31;5046868;28;20520;-79
2023/03/08 10:48:38;;;;;;;6.82;2.83;;;;;;;3.42;100.00;99642.50;5045076;28;20041;-79
2023/03/08 10:51:35;;;;;;;5.63;3.35;;;;;;;3.53;100.00;99640.91;5012938;28;20056;-78
2023/03/08 10:54:05;;;;;;;2.85;2.50;;;;;;;3.64;100.00;99633.25;5011591;28;20852;-78
2023/03/08 10:56:43;;;;;;;3.10;2.47;;;;;;;3.73;100.00;99632.47;4998106;28;20090;-79
2023/03/08 10:59:38;;;;;;;22.15;3.78;;;;;;;3.79;100.00;99625.59;5047363;28;20048;-79
2023/03/08 11:02:13;;;;;;;4.32;3.20;;;;;;;3.84;100.00;99630.88;5046767;28;20068;-79
2023/03/08 11:04:59;;;;;;;6.43;3.10;;;;;;;3.92;100.00;99630.94;5023007;28;20049;-79
2023/03/08 11:07:32;;;;;;;5.95;3.47;;;;;;;3.97;100.00;99640.56;5009203;28;20079;-79
2023/03/08 11:10:12;;;;;;;5.85;2.78;;;;;;;4.02;100.00;99638.84;5041237;28;20050;-79
2023/03/08 11:12:39;;;;;;;6.40;2.13;;;;;;;4.06;100.00;99631.94;4983060;28;20072;-78
2023/03/08 11:15:18;;;;;;;5.65;2.20;;;;;;;4.09;100.00;99630.25;5024453;28;20076;-78
2023/03/08 11:18:07;;;;;;;5.28;2.65;;;;;;;4.14;100.00;99632.91;5028923;28;20537;-78
2023/03/08 11:20:48;;;;;;;2.30;2.10;;;;;;;4.18;100.00;99625.97;5021615;28;20056;-80
2023/03/08 11:23:39;;;;;;;2.97;2.17;;;;;;;4.22;100.00;99619.94;5041623;28;20064;-80
2023/03/08 11:26:20;;;;;;;4.50;2.17;;;;;;;4.25;100.00;99614.75;5043820;28;20056;-79
2023/03/08 11:28:54;;;;;;;3.13;1.60;;;;;;;4.27;100.00;99613.91;5007585;28;20056;-79
2023/03/08 11:31:57;;;;;;;3.03;1.40;;;;;;;4.25;100.00;99619.97;5029896;28;20048;-78
2023/03/08 11:34:57;;;;;;;5.13;1.75;;;;;;;4.24;100.00;99618.22;4993302;28;20068;-79
2023/03/08 11:37:41;;;;;;;1.90;1.60;;;;;;;4.19;100.00;99612.94;5019989;28;20486;-78
2023/03/08 11:40:27;;;;;;;4.28;1.75;;;;;;;4.20;100.00;99617.31;5039215;28;20474;-79
2023/03/08 11:43:25;;;;;;;2.00;1.60;;;;;;;4.20;100.00;99611.25;4972824;28;20041;-78
2023/03/08 11:45:55;;;;;;;3.15;1.88;;;;;;;4.21;100.00;99619.06;5036200;28;20048;-78
2023/03/08 11:48:50;;;;;;;3.40;2.03;;;;;;;4.21;100.00;99610.38;5027302;28;20044;-78
2023/03/08 11:51:45;;;;;;;3.10;2.05;;;;;;;4.17;100.00;99606.00;5046940;28;20053;-78